Time;durP1;ratioP1;P1;durP2;ratioP2;P2;SDS_P1;SDS_P2;PMS_P1;PMS_P2;Temp;Humidity;BMP_temperature;BMP_pressure;BME280_temperature;BME280_humidity;BME280_pressure;Samples;Min_cycle;Max_cycle;Signal;HPM_P1;HPM_P2
2022/12/26 00:00:10;;;;;;;28.83;15.83;;;5.90;98.70;;;5.74;63.41;95862.03;4996458;28;20548;-58
2022/12/26 00:02:38;;;;;;;32.80;17.00;;;5.90;98.30;;;5.66;63.88;95861.66;5000651;28;21026;-55
2022/12/26 00:05:06;;;;;;;31.87;16.93;;;5.90;98.40;;;5.66;63.88;95859.03;4996764;28;20454;-55
2022/12/26 00:07:35;;;;;;;29.10;16.40;;;5.80;98.40;;;5.65;63.93;95870.38;4998575;28;20477;-56
2022/12/26 00:10:02;;;;;;;28.47;14.60;;;5.80;98.60;;;5.65;63.96;95859.13;4993912;28;20452;-54
2022/12/26 00:12:29;;;;;;;29.13;15.33;;;5.80;98.40;;;5.63;64.14;95860.97;4997147;28;20476;-53
2022/12/26 00:14:56;;;;;;;32.33;15.60;;;5.80;98.70;;;5.61;64.07;95868.03;4992618;28;20517;-56
2022/12/26 00:17:24;;;;;;;30.93;14.27;;;5.70;98.40;;;5.60;63.89;95875.03;4997245;28;20970;-55
2022/12/26 00:19:51;;;;;;;26.00;15.03;;;5.70;98.80;;;5.57;64.30;95875.19;4997108;28;20462;-56
2022/12/26 00:22:18;;;;;;;37.30;15.60;;;5.70;98.90;;;5.56;64.33;95886.56;4995724;28;20483;-56
2022/12/26 00:24:47;;;;;;;41.80;16.63;;;5.70;99.10;;;5.54;64.34;95877.97;4999224;28;21216;-57
2022/12/26 00:27:14;;;;;;;31.53;14.77;;;5.70;99.10;;;5.53;64.50;95891.94;4996920;28;21045;-55
2022/12/26 00:29:42;;;;;;;30.47;16.40;;;5.60;99.20;;;5.54;64.55;95885.81;4994936;28;20454;-55
2022/12/26 00:32:09;;;;;;;29.20;14.10;;;5.60;99.10;;;5.52;64.42;95885.06;4999951;28;20903;-57
2022/12/26 00:34:36;;;;;;;30.77;16.60;;;5.70;99.30;;;5.52;64.42;95879.84;4995928;28;20483;-54
2022/12/26 00:37:03;;;;;;;38.17;18.20;;;5.70;99.20;;;5.50;64.50;95881.66;4994776;28;20649;-55
2022/12/26 00:39:31;;;;;;;34.13;16.97;;;5.60;98.90;;;5.46;64.81;95877.56;4994201;28;21362;-57
2022/12/26 00:42:00;;;;;;;37.37;16.47;;;5.60;99.30;;;5.44;64.54;95880.25;4995265;28;20494;-57
2022/12/26 00:44:27;;;;;;;33.40;17.10;;;5.60;99.20;;;5.43;64.69;95896.00;4994121;28;20481;-57
2022/12/26 00:46:54;;;;;;;37.67;19.13;;;5.50;99.30;;;5.41;64.56;95884.78;4995698;28;20490;-56
2022/12/26 00:49:21;;;;;;;37.17;18.57;;;5.50;99.30;;;5.39;64.64;95888.34;4997075;28;20464;-57
2022/12/26 00:51:49;;;;;;;47.60;20.40;;;5.50;99.30;;;5.37;64.65;95877.13;4997251;28;20887;-56
2022/12/26 00:54:16;;;;;;;38.17;20.77;;;5.50;99.30;;;5.35;64.49;95884.19;4992347;28;20982;-56
2022/12/26 00:56:43;;;;;;;37.20;19.00;;;5.50;99.30;;;5.34;64.78;95894.72;4994288;28;20442;-56
2022/12/26 00:59:12;;;;;;;39.63;19.30;;;5.50;99.30;;;5.30;64.63;95890.56;4992661;28;20536;-55
2022/12/26 01:01:39;;;;;;;38.13;19.73;;;5.40;99.20;;;5.28;64.75;95887.22;4993884;28;20506;-54
2022/12/26 01:04:06;;;;;;;34.33;19.30;;;5.40;99.30;;;5.26;64.46;95895.13;4992052;28;20453;-57
2022/12/26 01:06:34;;;;;;;32.10;19.70;;;5.40;99.30;;;5.24;64.46;95896.97;4995261;28;20510;-55
2022/12/26 01:09:01;;;;;;;39.20;21.50;;;5.40;99.40;;;5.23;64.89;95894.44;4989794;28;21215;-57
2022/12/26 01:14:12;;;;;;;34.30;18.37;;;5.30;99.50;;;5.18;64.59;95898.13;4991685;28;20564;-54
2022/12/26 01:16:39;;;;;;;32.40;16.67;;;5.30;99.40;;;5.17;64.71;95911.25;4995306;28;20451;-57
2022/12/26 01:19:07;;;;;;;35.10;17.27;;;5.30;99.50;;;5.15;64.89;95907.91;4994965;28;20970;-56
2022/12/26 01:21:34;;;;;;;23.57;12.90;;;5.30;99.40;;;5.12;64.75;95916.72;4993279;28;20529;-54
2022/12/26 01:24:01;;;;;;;24.07;14.00;;;5.30;99.40;;;5.10;64.68;95922.97;4998966;28;20806;-56
2022/12/26 01:26:28;;;;;;;22.77;13.90;;;5.20;99.40;;;5.06;64.70;95914.44;4996457;28;20575;-57
2022/12/26 01:28:56;;;;;;;23.10;14.20;;;5.20;99.30;;;5.04;64.54;95913.69;4994053;28;20478;-55
2022/12/26 01:31:24;;;;;;;29.70;13.40;;;5.20;99.40;;;5.02;64.43;95913.75;4996025;28;20872;-54
2022/12/26 01:33:51;;;;;;;21.50;13.80;;;5.20;99.40;;;5.00;64.69;95913.00;4993870;28;20462;-56
2022/12/26 01:36:19;;;;;;;36.67;11.83;;;5.20;99.40;;;4.99;64.46;95908.72;4996786;28;21075;-57
2022/12/26 01:38:46;;;;;;;22.37;11.90;;;5.10;99.30;;;4.97;64.62;95910.56;4993707;28;21064;-57
2022/12/26 01:41:16;;;;;;;23.27;13.30;;;5.10;99.40;;;4.97;65.00;95899.25;4993221;28;21045;-57
2022/12/26 01:43:52;;;;;;;24.23;11.13;;;5.10;99.70;;;4.96;65.01;95898.44;4995100;28;20548;-57
2022/12/26 01:46:21;;;;;;;25.13;13.23;;;5.10;99.80;;;4.94;64.69;95891.59;4998025;28;20519;-55
2022/12/26 01:48:50;;;;;;;25.27;12.80;;;5.10;99.60;;;4.90;65.18;95893.53;4993685;28;20908;-53
2022/12/26 01:51:17;;;;;;;33.70;14.50;;;5.00;99.80;;;4.88;65.05;95895.41;5002842;28;20453;-54
2022/12/26 01:53:46;;;;;;;25.40;13.40;;;5.00;99.70;;;4.87;64.75;95896.31;4992038;28;21009;-55
2022/12/26 01:56:16;;;;;;;27.03;14.10;;;5.00;99.60;;;4.87;65.44;95898.09;4995342;28;20535;-55
2022/12/26 01:58:46;;;;;;;19.87;13.10;;;5.00;99.90;;;4.84;65.41;95891.25;4992214;28;20466;-56
2022/12/26 02:01:13;;;;;;;20.67;13.63;;;5.00;99.90;;;4.82;65.37;95890.50;4992030;28;20551;-55
2022/12/26 02:06:28;;;;;;;30.13;15.67;;;4.90;99.90;;;4.82;65.29;95893.94;4996062;28;20609;-55
2022/12/26 02:08:55;;;;;;;30.57;15.07;;;4.90;99.90;;;4.82;65.39;95880.06;4997939;28;20477;-54
2022/12/26 02:11:24;;;;;;;30.20;15.17;;;4.90;99.90;;;4.80;65.58;95884.50;4996299;28;20465;-56
2022/12/26 02:13:52;;;;;;;39.67;17.10;;;4.90;99.90;;;4.78;65.33;95883.75;4997994;28;20478;-54
2022/12/26 02:16:19;;;;;;;30.73;15.33;;;4.90;99.90;;;4.75;65.75;95881.31;4995086;28;20454;-56
2022/12/26 02:18:47;;;;;;;26.60;14.07;;;4.90;99.90;;;4.76;65.87;95872.56;4999008;28;20560;-54
2022/12/26 02:21:46;;;;;;;22.73;12.57;;;4.90;99.90;;;4.76;65.92;95876.00;4997073;28;20504;-55
2022/12/26 02:24:48;;;;;;;18.10;11.00;;;4.90;99.90;;;4.75;66.04;95873.47;4997718;28;20458;-56
2022/12/26 02:28:12;;;;;;;24.17;11.57;;;4.90;99.90;;;4.71;65.97;95874.56;4991926;28;20474;-56
2022/12/26 02:30:44;;;;;;;22.03;12.10;;;4.80;99.90;;;4.66;66.21;95875.66;4964844;28;20525;-55
2022/12/26 02:33:22;;;;;;;18.77;10.23;;;4.80;99.90;;;4.66;65.81;95875.66;5001198;28;20488;-57
2022/12/26 02:36:09;;;;;;;17.93;10.80;;;4.80;99.90;;;4.62;65.99;95881.09;5007918;28;20498;-57
2022/12/26 02:38:41;;;;;;;17.37;11.37;;;4.80;99.90;;;4.61;66.22;95884.63;4995909;28;20492;-56
2022/12/26 02:41:20;;;;;;;16.90;11.30;;;4.80;99.90;;;4.59;65.95;95873.44;4997240;28;20615;-57
2022/12/26 02:43:53;;;;;;;53.00;27.10;;;4.80;99.90;;;4.61;65.69;95880.25;5001868;28;20477;-55
2022/12/26 02:49:15;;;;;;;22.50;13.30;;;4.80;99.90;;;4.60;65.99;95878.56;4994935;28;20453;-53
2022/12/26 03:14:17;;;;;;;19.90;11.00;;;4.60;99.90;;;4.47;65.63;95880.09;4995040;28;20500;-55
2022/12/26 03:19:32;;;;;;;29.77;15.00;;;4.60;99.90;;;4.41;65.54;95883.03;4997580;28;20479;-55
2022/12/26 03:22:00;;;;;;;29.70;17.40;;;4.60;99.90;;;4.39;65.49;95892.69;4996062;28;21024;-56
2022/12/26 03:26:38;;;;;;;36.00;20.57;;;4.60;99.90;;;4.36;65.75;95891.06;4994649;28;20929;-55
2022/12/26 03:27:14;;;;;;;40.07;20.47;;;4.50;99.90;;;4.36;65.80;95888.47;4991784;28;20801;-57
2022/12/26 03:32:25;;;;;;;37.33;18.97;;;4.50;99.90;;;4.35;65.44;95888.53;4996792;28;20457;-56
2022/12/26 03:34:54;;;;;;;42.57;19.77;;;4.50;99.90;;;4.31;65.46;95888.69;4997530;28;20466;-56
2022/12/26 03:37:34;;;;;;;38.77;20.27;;;4.50;99.90;;;4.28;65.71;95896.66;4996647;28;20482;-55
2022/12/26 04:19:53;;;;;;;30.70;15.27;;;4.10;99.90;;;3.93;66.60;95888.81;4994850;28;20429;-56
2022/12/26 04:44:40;;;;;;;33.10;14.90;;;4.10;99.90;;;3.95;66.44;95912.19;4997994;28;20487;-57
2022/12/26 04:47:07;;;;;;;25.77;15.57;;;4.10;99.90;;;3.95;66.43;95910.41;4998163;28;21057;-56
2022/12/26 04:52:53;;;;;;;31.47;14.63;;;4.10;99.90;;;3.97;66.66;95917.28;4999793;28;20523;-56
2022/12/26 04:55:15;;;;;;;32.00;16.23;;;4.10;99.90;;;3.98;66.83;95918.97;4993752;28;20831;-56
2022/12/26 04:57:44;;;;;;;34.23;17.60;;;4.10;99.90;;;3.97;66.54;95919.88;4996514;28;20912;-56
2022/12/26 05:00:13;;;;;;;33.07;17.80;;;4.10;99.90;;;3.97;66.37;95922.47;4993817;28;20518;-57
2022/12/26 05:10:59;;;;;;;29.33;16.20;;;4.10;99.90;;;3.93;65.88;95916.59;4988301;28;20462;-57
2022/12/26 05:13:27;;;;;;;26.63;15.00;;;4.10;99.90;;;3.90;66.39;95927.16;4997586;28;20473;-56
2022/12/26 05:29:52;;;;;;;26.80;15.87;;;4.00;99.90;;;3.74;66.00;95953.06;4984482;28;20922;-55
2022/12/26 05:35:04;;;;;;;36.67;14.00;;;3.90;99.90;;;3.75;67.00;95954.75;4995139;28;20588;-56
2022/12/26 05:37:31;;;;;;;31.87;16.67;;;3.90;99.90;;;3.74;66.16;95947.84;4995690;28;21166;-53
2022/12/26 05:39:58;;;;;;;31.20;16.20;;;3.90;99.90;;;3.73;66.82;95951.34;5000796;28;20481;-56
2022/12/26 05:42:25;;;;;;;34.60;17.97;;;3.90;99.90;;;3.72;66.40;95945.31;4999561;28;20496;-55
2022/12/26 05:44:54;;;;;;;28.67;15.67;;;3.90;99.90;;;3.71;66.56;95946.22;5005380;28;20449;-53
2022/12/26 05:47:21;;;;;;;27.43;14.97;;;4.00;99.90;;;3.70;66.48;95949.75;4998774;28;20485;-56
2022/12/26 05:49:49;;;;;;;25.23;14.27;;;3.90;99.90;;;3.69;66.89;95947.22;5002856;28;20459;-56
2022/12/26 05:52:16;;;;;;;33.60;16.90;;;3.90;99.90;;;3.68;66.40;95948.97;4998957;28;20481;-53
2022/12/26 05:54:43;;;;;;;21.83;13.83;;;3.90;99.90;;;3.68;66.62;95942.94;4994751;28;20539;-56
2022/12/26 05:57:10;;;;;;;29.80;14.20;;;3.90;99.90;;;3.67;66.85;95941.25;4998291;28;21005;-56
2022/12/26 05:59:37;;;;;;;22.80;12.37;;;3.90;99.90;;;3.62;67.32;95936.25;5001545;28;21246;-56
2022/12/26 06:02:06;;;;;;;24.00;13.63;;;3.90;99.90;;;3.65;66.38;95943.91;5001151;28;20493;-57
2022/12/26 06:04:35;;;;;;;21.17;13.03;;;3.90;99.90;;;3.65;66.66;95945.69;5000809;28;20548;-57
2022/12/26 06:07:02;;;;;;;28.70;12.97;;;3.90;99.90;;;3.66;66.87;95947.38;5001432;28;20477;-55
2022/12/26 06:09:29;;;;;;;20.67;13.03;;;3.90;99.90;;;3.67;66.57;95951.66;5000706;28;20532;-56
2022/12/26 06:11:57;;;;;;;21.60;11.97;;;3.90;99.90;;;3.67;66.65;95946.44;5001295;28;20978;-56
2022/12/26 06:14:24;;;;;;;27.67;12.90;;;3.90;99.90;;;3.69;67.18;95948.06;4999582;28;20462;-54
2022/12/26 06:16:51;;;;;;;19.30;11.53;;;3.90;99.90;;;3.74;66.64;95951.28;5007319;28;20534;-54
2022/12/26 06:19:20;;;;;;;19.60;11.13;;;3.90;99.90;;;3.95;67.33;95954.66;4999149;28;20462;-54
2022/12/26 06:21:47;;;;;;;23.83;11.30;;;4.10;99.90;;;4.36;66.58;95950.13;4998409;28;20548;-57
2022/12/26 06:24:14;;;;;;;23.23;12.50;;;4.50;99.90;;;4.82;65.89;95953.88;4998783;28;20494;-55
2022/12/26 06:26:42;;;;;;;16.20;11.53;;;5.00;99.90;;;5.31;64.88;95960.09;4998333;28;20595;-55
2022/12/26 06:29:09;;;;;;;22.67;10.40;;;5.50;99.90;;;5.79;64.14;95960.16;4999034;28;20892;-54
2022/12/26 06:31:37;;;;;;;15.53;10.50;;;5.90;99.90;;;6.24;63.10;95962.03;5000034;28;20469;-56
2022/12/26 06:34:04;;;;;;;18.13;9.90;;;6.40;99.50;;;6.71;62.38;95975.94;4997756;28;20544;-56
2022/12/26 06:36:32;;;;;;;19.40;9.90;;;7.00;98.90;;;7.14;61.44;95968.19;5003936;28;20496;-56
2022/12/26 06:39:00;;;;;;;20.77;10.93;;;7.50;98.10;;;7.57;60.26;95967.34;4994784;28;22516;-56
2022/12/26 06:41:27;;;;;;;14.50;9.83;;;7.90;97.40;;;8.01;59.16;95968.13;5000699;28;20485;-55
2022/12/26 06:43:55;;;;;;;18.77;11.40;;;8.40;96.50;;;8.42;59.19;95969.88;5003612;28;20892;-55
2022/12/26 06:46:25;;;;;;;24.00;12.07;;;8.80;96.00;;;8.83;58.01;95970.75;4997422;28;20469;-57
2022/12/26 06:48:52;;;;;;;23.40;12.80;;;9.10;95.00;;;9.13;57.29;95973.13;4996857;28;20510;-56
2022/12/26 06:51:21;;;;;;;22.57;13.57;;;9.40;94.70;;;9.37;56.53;95964.50;5003952;28;20442;-55
2022/12/26 06:53:50;;;;;;;17.50;10.93;;;9.60;93.90;;;9.59;56.35;95967.34;4998081;28;21021;-55
2022/12/26 06:56:18;;;;;;;20.37;13.07;;;9.90;93.60;;;9.83;55.96;95974.44;4996149;28;20458;-53
2022/12/26 06:58:45;;;;;;;22.37;13.30;;;10.20;92.80;;;10.22;55.49;95972.56;4997980;28;20478;-55
2022/12/26 07:01:14;;;;;;;20.67;13.30;;;10.50;92.50;;;10.73;54.92;95967.09;4997331;28;20481;-55
2022/12/26 07:03:42;;;;;;;24.40;14.57;;;11.00;92.30;;;11.27;53.66;95978.88;5000879;28;20465;-55
2022/12/26 07:06:12;;;;;;;21.90;14.90;;;11.40;91.30;;;11.81;52.81;95982.66;4999030;28;21026;-57
2022/12/26 07:08:39;;;;;;;26.33;13.50;;;11.90;90.60;;;12.29;51.43;95978.09;4994590;28;20474;-57
2022/12/26 07:11:14;;;;;;;21.20;14.40;;;12.40;88.80;;;12.74;50.54;95984.06;4997708;28;20870;-56
2022/12/26 07:13:42;;;;;;;25.77;15.73;;;12.90;87.00;;;13.15;49.99;95979.00;4995814;28;20485;-57
2022/12/26 07:16:09;;;;;;;21.67;15.03;;;13.30;84.70;;;13.62;48.92;95982.06;5002869;28;20465;-56
2022/12/26 07:18:36;;;;;;;28.60;16.47;;;13.80;81.30;;;14.14;47.40;95989.97;4996039;28;20527;-55
2022/12/26 07:21:05;;;;;;;29.30;15.77;;;14.30;77.90;;;14.67;46.78;95985.34;4998547;28;20908;-56
2022/12/26 07:23:33;;;;;;;34.60;17.00;;;14.80;76.30;;;15.15;46.17;95991.66;4995164;28;21015;-57
2022/12/26 07:26:00;;;;;;;25.20;14.50;;;15.30;74.80;;;15.52;45.35;95982.97;5000363;28;21010;-58
2022/12/26 07:28:29;;;;;;;20.87;13.47;;;15.90;73.60;;;15.84;44.69;95982.63;4998889;28;20485;-56
2022/12/26 07:30:58;;;;;;;22.60;16.27;;;16.30;70.00;;;16.13;44.15;95984.34;5001086;28;20528;-56
2022/12/26 07:33:26;;;;;;;23.20;14.40;;;16.70;68.50;;;16.44;43.56;95981.38;4998142;28;20961;-61
2022/12/26 07:35:53;;;;;;;27.17;16.07;;;17.10;66.40;;;16.67;42.71;95973.84;5004092;28;20982;-55
2022/12/26 07:38:20;;;;;;;26.60;14.33;;;17.40;64.50;;;16.84;42.27;95973.00;4997049;28;20577;-56
2022/12/26 07:40:47;;;;;;;21.80;13.67;;;17.70;63.10;;;16.99;41.78;95973.34;4998400;28;21572;-55
2022/12/26 07:43:15;;;;;;;21.43;13.87;;;17.90;61.80;;;17.12;41.70;95972.97;4996425;28;20498;-57
2022/12/26 07:45:43;;;;;;;31.93;15.47;;;18.00;60.40;;;17.31;40.97;95984.41;5001815;28;20464;-55
2022/12/26 07:48:10;;;;;;;25.63;14.20;;;18.20;59.80;;;17.48;40.96;95980.88;4994499;28;20902;-56
2022/12/26 07:50:38;;;;;;;20.67;12.63;;;18.30;59.10;;;17.69;40.26;95975.22;4997719;28;21035;-57
2022/12/26 07:53:05;;;;;;;23.47;13.20;;;18.30;58.50;;;17.90;39.56;95980.16;4996963;28;20553;-56
2022/12/26 07:55:32;;;;;;;28.43;14.67;;;18.40;57.90;;;18.05;39.25;95974.28;4998133;28;20517;-55
2022/12/26 07:57:59;;;;;;;26.23;16.17;;;18.40;57.30;;;18.17;38.83;95974.81;4999527;28;20564;-56
2022/12/26 08:00:27;;;;;;;22.77;15.70;;;18.40;56.40;;;18.31;38.68;95968.03;4999143;28;20481;-53
2022/12/26 08:02:55;;;;;;;32.60;15.53;;;18.40;56.70;;;18.48;38.37;95964.44;4998815;28;20954;-57
2022/12/26 08:05:22;;;;;;;25.53;15.80;;;18.40;56.20;;;18.62;38.57;95971.81;5001061;28;20512;-57
2022/12/26 08:07:50;;;;;;;24.90;16.63;;;18.50;55.50;;;18.78;38.33;95975.53;4998430;28;20887;-55
2022/12/26 08:10:17;;;;;;;28.97;17.53;;;18.60;55.80;;;18.90;37.81;95976.91;4997430;28;20466;-57
2022/12/26 08:12:44;;;;;;;23.40;14.97;;;18.70;55.40;;;19.01;37.39;95972.25;5000971;28;20552;-56
2022/12/26 08:15:12;;;;;;;22.83;15.20;;;18.80;54.20;;;19.13;38.10;95971.78;4998520;28;20463;-56
2022/12/26 08:17:39;;;;;;;18.07;13.60;;;18.90;55.20;;;19.33;37.44;95972.28;4998687;28;20484;-54
2022/12/26 08:20:09;;;;;;;18.30;12.43;;;19.10;54.70;;;19.52;36.76;95983.59;4998294;28;20573;-56
2022/12/26 08:22:36;;;;;;;17.40;11.23;;;19.20;53.90;;;19.72;36.71;95981.41;4996877;28;21029;-58
2022/12/26 08:25:05;;;;;;;16.60;10.40;;;19.40;54.00;;;19.89;36.67;95982.22;4995576;28;20458;-57
2022/12/26 08:27:32;;;;;;;13.77;9.90;;;19.50;53.30;;;19.97;36.35;95982.22;4994360;28;20536;-57
2022/12/26 08:29:59;;;;;;;13.37;10.27;;;19.60;52.40;;;20.01;36.54;95980.84;4996049;28;20485;-56
2022/12/26 08:32:26;;;;;;;20.40;11.97;;;19.70;52.90;;;20.09;36.15;95971.16;4996573;28;20967;-57
2022/12/26 08:34:54;;;;;;;16.07;10.00;;;19.80;52.50;;;20.16;35.86;95980.16;4999073;28;20464;-57
2022/12/26 08:37:22;;;;;;;14.07;10.30;;;19.80;52.10;;;20.27;36.03;95973.63;5000047;28;20493;-56
2022/12/26 08:39:51;;;;;;;18.03;13.10;;;19.90;52.10;;;20.35;35.59;95969.06;4996417;28;20484;-55
2022/12/26 08:42:18;;;;;;;25.67;15.03;;;20.00;51.90;;;20.45;35.76;95965.34;4995147;28;20500;-56
2022/12/26 08:44:46;;;;;;;25.90;14.43;;;20.10;52.00;;;20.53;35.39;95962.66;4998390;28;20453;-57
2022/12/26 08:47:13;;;;;;;20.30;12.60;;;20.20;51.80;;;20.62;34.80;95966.09;4994461;28;20481;-57
2022/12/26 08:49:40;;;;;;;21.63;12.00;;;20.30;50.70;;;20.63;33.97;95957.91;4997822;28;20466;-57
2022/12/26 08:52:08;;;;;;;22.90;13.60;;;20.40;49.50;;;20.60;34.83;95959.09;5001078;28;20556;-55
2022/12/26 08:54:37;;;;;;;24.33;15.33;;;20.30;50.10;;;20.57;34.77;95958.59;4996022;28;20450;-57
2022/12/26 08:57:04;;;;;;;30.17;18.80;;;20.30;50.20;;;20.57;34.42;95953.25;4994237;28;20478;-58
2022/12/26 08:59:31;;;;;;;27.67;16.87;;;20.30;49.50;;;20.57;34.19;95947.91;4995186;28;20890;-53
2022/12/26 09:01:58;;;;;;;24.03;16.30;;;20.30;49.00;;;20.48;32.35;95948.94;4993967;28;20921;-56
2022/12/26 09:04:26;;;;;;;32.43;15.43;;;20.10;46.80;;;20.27;33.54;95937.03;4995941;28;20509;-58
2022/12/26 09:06:53;;;;;;;23.30;14.90;;;20.00;47.60;;;20.11;34.98;95937.09;4995467;28;20478;-53
2022/12/26 09:09:20;;;;;;;25.23;14.80;;;19.80;49.00;;;20.01;34.52;95940.78;4996415;28;20490;-56
2022/12/26 09:11:49;;;;;;;22.10;14.00;;;19.70;49.50;;;20.03;35.04;95948.63;4994970;28;20458;-54
2022/12/26 09:14:16;;;;;;;19.63;12.40;;;19.60;49.90;;;20.11;35.38;95945.97;4995646;28;20529;-55
2022/12/26 09:16:45;;;;;;;24.77;14.60;;;19.70;50.20;;;20.21;34.71;95949.22;5002085;28;20463;-54
2022/12/26 09:19:16;;;;;;;31.27;14.80;;;19.80;49.50;;;20.34;34.24;95946.03;4997989;28;20468;-56
2022/12/26 09:21:43;;;;;;;27.47;15.33;;;20.00;49.10;;;20.45;33.47;95943.97;4999301;28;20541;-56
2022/12/26 09:24:13;;;;;;;23.17;15.50;;;20.10;48.70;;;20.51;34.04;95948.59;4997981;28;21100;-54
2022/12/26 09:26:40;;;;;;;23.70;17.00;;;20.20;48.80;;;20.56;34.02;95938.25;5001277;28;21024;-57
2022/12/26 09:29:09;;;;;;;34.33;18.37;;;20.20;48.50;;;20.65;33.53;95934.53;4994045;28;20957;-58
2022/12/26 09:31:37;;;;;;;28.80;17.27;;;20.20;48.30;;;20.76;33.74;95934.13;4979137;28;20540;-58
2022/12/26 09:34:05;;;;;;;32.00;16.10;;;20.40;48.10;;;20.88;33.51;95931.88;4996904;28;20478;-56
2022/12/26 09:36:34;;;;;;;25.67;18.23;;;20.50;48.70;;;21.04;33.94;95936.28;5004392;28;20819;-55
2022/12/26 09:39:01;;;;;;;22.33;13.07;;;20.60;48.20;;;21.22;33.42;95929.78;4999531;28;20476;-59
2022/12/26 09:41:53;;;;;;;22.37;14.57;;;20.70;48.10;;;21.41;32.95;95942.66;4998226;28;20446;-57
2022/12/26 09:44:25;;;;;;;17.90;14.10;;;20.90;47.70;;;21.62;32.62;95936.63;4986478;28;20494;-54
2022/12/26 09:47:01;;;;;;;21.97;14.00;;;21.20;47.60;;;21.91;32.37;95936.84;4998389;28;20504;-57
2022/12/26 09:49:30;;;;;;;21.80;14.20;;;21.40;47.40;;;22.21;32.04;95929.63;5000718;28;20796;-56
2022/12/26 09:52:00;;;;;;;25.70;15.67;;;21.70;47.40;;;22.42;31.82;95926.22;5002953;28;20539;-58
2022/12/26 09:54:43;;;;;;;26.23;14.80;;;22.00;47.00;;;22.55;32.16;95931.72;4999568;28;20454;-57
2022/12/26 09:57:15;;;;;;;17.40;13.67;;;22.10;46.30;;;22.70;32.16;95930.88;5001601;28;20477;-56
2022/12/26 09:59:48;;;;;;;29.63;17.47;;;22.30;46.10;;;22.92;31.04;95923.66;4999754;28;20458;-55
2022/12/26 10:02:18;;;;;;;30.27;15.23;;;22.50;45.60;;;23.15;31.01;95915.44;4997293;28;20481;-55
2022/12/26 10:04:45;;;;;;;34.17;18.73;;;22.70;45.50;;;23.36;30.98;95913.75;5000016;28;20461;-57
2022/12/26 10:07:24;;;;;;;14.93;11.53;;;23.00;45.50;;;23.62;30.58;95903.25;4998360;28;20473;-56
2022/12/26 10:10:09;;;;;;;19.77;14.10;;;23.20;45.20;;;23.89;29.68;95906.13;4992990;28;20457;-54
2022/12/26 10:12:46;;;;;;;23.57;14.30;;;23.50;44.60;;;24.13;29.47;95901.28;4998982;28;20899;-56
2022/12/26 10:15:34;;;;;;;20.93;13.37;;;23.70;45.10;;;24.43;29.64;95906.34;4993491;28;20450;-54
2022/12/26 10:18:12;;;;;;;14.80;11.60;;;24.00;44.10;;;24.68;29.93;95898.63;4996829;28;20536;-57
2022/12/26 10:20:46;;;;;;;19.00;11.40;;;24.20;43.90;;;25.01;29.37;95895.16;4993290;28;20442;-57
2022/12/26 10:23:31;;;;;;;20.80;12.50;;;24.50;43.40;;;25.23;29.08;95875.06;4997799;28;20516;-57
2022/12/26 10:26:05;;;;;;;14.37;10.70;;;24.80;42.80;;;25.37;28.61;95883.19;4991662;28;20529;-55
2022/12/26 10:28:39;;;;;;;17.90;11.33;;;25.00;42.50;;;25.49;29.00;95881.53;4998169;28;20488;-56
2022/12/26 10:31:21;;;;;;;19.93;11.47;;;25.10;42.00;;;25.69;28.57;95878.00;4997113;28;21004;-55
2022/12/26 10:33:52;;;;;;;17.87;11.60;;;25.20;42.10;;;26.02;28.04;95877.13;4998068;28;20489;-56
2022/12/26 10:36:29;;;;;;;20.07;10.70;;;25.50;41.20;;;26.37;27.25;95877.59;4998266;28;20471;-54
2022/12/26 10:38:58;;;;;;;17.33;10.83;;;25.70;40.10;;;26.61;25.72;95865.22;4995495;28;20464;-55
2022/12/26 10:41:27;;;;;;;14.53;9.70;;;25.90;39.10;;;26.83;27.05;95873.88;4995556;28;20453;-57
2022/12/26 10:43:54;;;;;;;12.17;8.87;;;26.10;40.10;;;27.16;26.57;95864.69;4997473;28;20544;-57
2022/12/26 10:47:05;;;;;;;18.27;11.33;;;26.40;39.80;;;27.66;26.35;95871.97;4994943;28;20445;-56
2022/12/26 10:49:32;;;;;;;19.30;10.33;;;26.80;38.30;;;28.00;26.24;95858.16;4997629;28;20844;-57
2022/12/26 10:52:01;;;;;;;12.77;9.33;;;27.20;38.80;;;28.32;25.72;95855.25;5003424;28;20470;-57
2022/12/26 10:54:29;;;;;;;12.97;8.73;;;27.60;38.50;;;28.63;25.40;95853.44;4996400;28;20963;-56
2022/12/26 10:56:57;;;;;;;11.33;8.50;;;27.90;38.00;;;28.91;25.29;95856.38;4998651;28;20482;-55
2022/12/26 10:59:36;;;;;;;14.80;8.03;;;28.20;36.80;;;29.11;24.02;95850.63;4997419;28;20536;-56
2022/12/26 11:02:31;;;;;;;13.53;9.37;;;28.40;35.40;;;29.23;24.13;95847.97;4998910;28;20506;-57
2022/12/26 11:05:06;;;;;;;17.37;10.50;;;28.50;36.40;;;29.37;23.13;95843.16;4998335;28;20466;-55
2022/12/26 11:07:35;;;;;;;21.93;10.23;;;28.70;34.90;;;29.44;24.44;95843.88;4995350;28;20770;-57
2022/12/26 11:10:03;;;;;;;17.03;9.60;;;28.80;35.40;;;29.38;23.48;95841.28;4997085;28;20454;-56
2022/12/26 11:12:39;;;;;;;12.00;10.07;;;28.90;34.60;;;29.28;23.74;95833.72;4997780;28;20466;-56
2022/12/26 11:15:17;;;;;;;18.03;9.37;;;28.90;35.10;;;29.53;23.71;95835.38;4997110;28;20447;-58
2022/12/26 11:17:49;;;;;;;11.33;8.17;;;29.10;35.50;;;29.58;23.94;95822.78;4994699;28;21031;-57
2022/12/26 11:20:28;;;;;;;13.00;8.20;;;29.30;35.10;;;29.17;23.35;95820.97;4996146;28;20481;-55
2022/12/26 11:22:56;;;;;;;19.80;9.10;;;29.40;34.10;;;28.55;24.75;95827.47;4996202;28;20485;-55
2022/12/26 11:25:24;;;;;;;13.83;8.27;;;29.30;34.70;;;28.24;24.35;95823.94;4997841;28;20458;-57
2022/12/26 11:27:53;;;;;;;11.87;9.00;;;29.00;34.80;;;27.93;25.10;95811.38;4997013;28;20559;-57
2022/12/26 11:30:27;;;;;;;12.90;9.57;;;28.70;35.10;;;27.59;25.35;95819.88;5001196;28;20491;-57
2022/12/26 11:33:18;;;;;;;14.83;10.20;;;28.40;35.60;;;27.03;26.30;95813.47;4997877;28;20481;-58
2022/12/26 11:35:51;;;;;;;15.93;9.00;;;27.80;35.70;;;26.54;26.67;95815.88;5003008;28;20982;-56
2022/12/26 11:38:35;;;;;;;17.87;9.53;;;27.30;36.60;;;26.14;26.97;95809.88;4990890;28;20477;-56
2022/12/26 11:43:49;;;;;;;19.50;11.17;;;26.30;37.50;;;25.38;27.57;95798.69;5004091;28;20543;-57
2022/12/26 11:46:16;;;;;;;17.97;12.97;;;25.80;38.40;;;25.04;27.70;95800.53;4998647;28;20461;-57
2022/12/26 11:48:49;;;;;;;19.13;12.20;;;25.40;38.40;;;24.49;27.94;95792.59;5002008;28;20482;-56
2022/12/26 11:51:17;;;;;;;17.53;12.80;;;24.90;38.30;;;24.06;28.60;95792.91;5002429;28;20458;-58
2022/12/26 11:53:46;;;;;;;24.07;12.87;;;24.40;39.40;;;23.82;29.15;95797.75;4991710;28;20903;-57
2022/12/26 11:56:14;;;;;;;22.10;12.80;;;24.00;39.80;;;23.55;29.52;95786.88;5000810;28;20461;-58
2022/12/26 11:58:41;;;;;;;20.93;12.47;;;23.70;40.10;;;23.28;29.64;95785.88;4999638;28;20473;-57
2022/12/26 12:01:17;;;;;;;19.53;11.40;;;23.40;40.30;;;22.95;29.61;95774.91;5000818;28;20462;-56
2022/12/26 12:03:45;;;;;;;19.97;11.93;;;23.10;40.50;;;22.61;29.95;95773.78;5002260;28;20519;-54
2022/12/26 12:06:27;;;;;;;19.83;12.67;;;22.70;41.20;;;22.24;30.10;95770.31;5005808;28;20461;-57
2022/12/26 12:09:00;;;;;;;25.83;13.50;;;22.30;41.40;;;21.86;29.94;95779.38;4995620;28;20544;-57
2022/12/26 12:11:32;;;;;;;25.57;14.70;;;22.00;41.30;;;21.46;31.35;95760.09;4999536;28;20556;-56
2022/12/26 12:14:25;;;;;;;22.90;13.30;;;21.60;42.10;;;21.09;31.69;95760.00;4998180;28;20469;-57
2022/12/26 12:17:11;;;;;;;27.27;14.73;;;21.20;42.50;;;20.78;32.05;95762.81;5002938;28;20492;-57
2022/12/26 12:19:49;;;;;;;21.57;13.93;;;20.80;43.10;;;20.28;32.35;95762.38;4998439;28;20461;-55
2022/12/26 12:22:54;;;;;;;20.43;15.57;;;20.40;43.30;;;19.71;32.77;95768.88;5001167;28;20474;-57
2022/12/26 12:25:46;;;;;;;24.40;15.20;;;19.90;43.50;;;19.16;33.32;95757.22;5001412;28;20477;-58
2022/12/26 12:28:39;;;;;;;20.83;14.43;;;19.30;44.30;;;18.63;34.45;95762.97;5005968;28;20857;-58
2022/12/26 12:31:11;;;;;;;21.47;13.60;;;18.80;45.00;;;18.21;34.88;95758.63;5004956;28;20541;-55
2022/12/26 12:33:47;;;;;;;22.17;15.07;;;18.30;45.50;;;17.96;35.53;95759.63;5000591;28;20528;-56
2022/12/26 12:36:21;;;;;;;24.13;16.50;;;18.00;46.30;;;17.76;35.61;95759.03;4995101;28;20442;-57